ROG2RR LERS-LESO
Flight info
| Callsign | ROG2RR |
|---|---|
| Flight time | 1h 43m |
| Altitude | 14000 |
| Route | POSSY M601 RONKO P152 BAGAS L176 SSN |
| Aircraft | DA42/L-SBDFGRY/C |
Departure
| Time | 2026-05-05 10:04 |
|---|---|
| Airport | Reus Airport (LERS) |
Arrival
| Time | 2026-05-05 11:48 |
|---|---|
| Airport | San Sebastián Airport (LESO) |
| Time | Latitude | Longitude | Altitude | Speed | Heading |
|---|---|---|---|---|---|
| 2026-05-05 09:41 | 41.14357 | 1.15051 | 235 ft | 0 kts | 68° |
| 2026-05-05 09:53 | 41.14361 | 1.15053 | 235 ft | 3 kts | 356° |
| 2026-05-05 09:53 | 41.14401 | 1.15041 | 235 ft | 7 kts | 8° |
| 2026-05-05 09:53 | 41.14433 | 1.15074 | 235 ft | 8 kts | 67° |
| 2026-05-05 09:53 | 41.14461 | 1.15170 | 235 ft | 13 kts | 70° |
| 2026-05-05 09:54 | 41.14498 | 1.15297 | 235 ft | 14 kts | 69° |
| 2026-05-05 09:54 | 41.14523 | 1.15384 | 235 ft | 11 kts | 69° |
| 2026-05-05 09:54 | 41.14560 | 1.15499 | 235 ft | 15 kts | 66° |
| 2026-05-05 09:54 | 41.14602 | 1.15644 | 235 ft | 18 kts | 69° |
| 2026-05-05 09:55 | 41.14650 | 1.15806 | 235 ft | 19 kts | 69° |
| 2026-05-05 09:55 | 41.14699 | 1.15976 | 235 ft | 20 kts | 69° |
| 2026-05-05 09:55 | 41.14752 | 1.16152 | 235 ft | 21 kts | 69° |
| 2026-05-05 09:55 | 41.14803 | 1.16330 | 235 ft | 21 kts | 66° |
| 2026-05-05 09:56 | 41.14857 | 1.16515 | 235 ft | 22 kts | 68° |
| 2026-05-05 09:56 | 41.14913 | 1.16705 | 235 ft | 22 kts | 68° |
| 2026-05-05 09:56 | 41.14969 | 1.16894 | 235 ft | 22 kts | 67° |
| 2026-05-05 09:56 | 41.15024 | 1.17084 | 235 ft | 22 kts | 68° |
| 2026-05-05 09:57 | 41.15081 | 1.17275 | 235 ft | 22 kts | 69° |
| 2026-05-05 09:57 | 41.15135 | 1.17464 | 235 ft | 22 kts | 69° |
| 2026-05-05 09:57 | 41.15190 | 1.17652 | 235 ft | 22 kts | 66° |
| 2026-05-05 09:57 | 41.15245 | 1.17839 | 235 ft | 22 kts | 68° |
| 2026-05-05 09:58 | 41.15301 | 1.18029 | 235 ft | 22 kts | 70° |
| 2026-05-05 09:58 | 41.15345 | 1.18185 | 235 ft | 14 kts | 81° |
| 2026-05-05 09:58 | 41.15306 | 1.18254 | 235 ft | 8 kts | 159° |
| 2026-05-05 09:58 | 41.15292 | 1.18260 | 235 ft | 0 kts | 160° |
| 2026-05-05 10:02 | 41.15289 | 1.18262 | 235 ft | 2 kts | 158° |
| 2026-05-05 10:02 | 41.15244 | 1.18285 | 235 ft | 11 kts | 163° |
| 2026-05-05 10:02 | 41.15190 | 1.18266 | 235 ft | 6 kts | 239° |
| 2026-05-05 10:03 | 41.15187 | 1.18258 | 235 ft | 0 kts | 248° |
| 2026-05-05 10:03 | 41.15138 | 1.18089 | 235 ft | 49 kts | 249° |
| 2026-05-05 10:03 | 41.14965 | 1.17487 | 262 ft | 83 kts | 246° |
| 2026-05-05 10:04 | 41.14737 | 1.16766 | 476 ft | 87 kts | 243° |
| 2026-05-05 10:04 | 41.14503 | 1.16002 | 746 ft | 90 kts | 247° |
| 2026-05-05 10:04 | 41.14225 | 1.15249 | 1021 ft | 93 kts | 240° |
| 2026-05-05 10:04 | 41.13918 | 1.14514 | 1308 ft | 89 kts | 241° |
| 2026-05-05 10:05 | 41.13621 | 1.13796 | 1566 ft | 89 kts | 242° |
| 2026-05-05 10:05 | 41.13320 | 1.13065 | 1834 ft | 91 kts | 244° |
| 2026-05-05 10:05 | 41.13018 | 1.12334 | 2075 ft | 91 kts | 246° |
| 2026-05-05 10:05 | 41.12720 | 1.11603 | 2332 ft | 89 kts | 246° |
| 2026-05-05 10:06 | 41.12428 | 1.10893 | 2572 ft | 88 kts | 246° |
| 2026-05-05 10:06 | 41.12130 | 1.10173 | 2801 ft | 89 kts | 246° |
| 2026-05-05 10:06 | 41.11831 | 1.09451 | 3040 ft | 90 kts | 246° |
| 2026-05-05 10:06 | 41.11529 | 1.08712 | 3267 ft | 92 kts | 246° |
| 2026-05-05 10:07 | 41.11217 | 1.07955 | 3496 ft | 95 kts | 245° |
| 2026-05-05 10:07 | 41.10900 | 1.07185 | 3750 ft | 95 kts | 245° |
| 2026-05-05 10:07 | 41.10579 | 1.06410 | 4001 ft | 96 kts | 244° |
| 2026-05-05 10:07 | 41.10260 | 1.05638 | 4256 ft | 96 kts | 244° |
| 2026-05-05 10:08 | 41.10048 | 1.05123 | 4425 ft | 96 kts | 244° |
| 2026-05-05 10:08 | 41.09729 | 1.04353 | 4680 ft | 95 kts | 244° |
| 2026-05-05 10:08 | 41.09412 | 1.03586 | 4929 ft | 95 kts | 244° |
| 2026-05-05 10:08 | 41.08996 | 1.02579 | 5261 ft | 94 kts | 243° |
| 2026-05-05 10:09 | 41.08783 | 1.02066 | 5426 ft | 94 kts | 243° |
| 2026-05-05 10:09 | 41.08473 | 1.01318 | 5683 ft | 92 kts | 243° |
| 2026-05-05 10:09 | 41.08168 | 1.00583 | 5935 ft | 92 kts | 242° |
| 2026-05-05 10:09 | 41.07861 | 0.99849 | 6191 ft | 91 kts | 242° |
| 2026-05-05 10:10 | 41.07554 | 0.99122 | 6442 ft | 90 kts | 242° |
| 2026-05-05 10:10 | 41.07249 | 0.98402 | 6691 ft | 89 kts | 241° |
| 2026-05-05 10:10 | 41.06946 | 0.97690 | 6928 ft | 88 kts | 240° |
| 2026-05-05 10:10 | 41.06648 | 0.96990 | 7173 ft | 87 kts | 239° |
| 2026-05-05 10:11 | 41.06352 | 0.96302 | 7423 ft | 85 kts | 239° |
| 2026-05-05 10:11 | 41.06058 | 0.95623 | 7675 ft | 85 kts | 238° |
| 2026-05-05 10:11 | 41.05765 | 0.94949 | 7927 ft | 84 kts | 238° |
| 2026-05-05 10:11 | 41.05474 | 0.94281 | 8179 ft | 83 kts | 238° |
| 2026-05-05 10:12 | 41.05189 | 0.93620 | 8444 ft | 82 kts | 240° |
| 2026-05-05 10:12 | 41.05088 | 0.92864 | 8707 ft | 86 kts | 263° |
| 2026-05-05 10:12 | 41.05220 | 0.92085 | 8967 ft | 91 kts | 281° |
| 2026-05-05 10:12 | 41.05611 | 0.91394 | 9235 ft | 99 kts | 306° |
| 2026-05-05 10:13 | 41.06233 | 0.90957 | 9496 ft | 103 kts | 325° |
| 2026-05-05 10:13 | 41.06892 | 0.90625 | 9733 ft | 99 kts | 321° |
| 2026-05-05 10:13 | 41.07561 | 0.90273 | 9894 ft | 109 kts | 324° |
| 2026-05-05 10:13 | 41.08309 | 0.89885 | 10036 ft | 122 kts | 326° |
| 2026-05-05 10:14 | 41.09124 | 0.89463 | 10185 ft | 129 kts | 327° |
| 2026-05-05 10:14 | 41.09962 | 0.89027 | 10378 ft | 130 kts | 326° |
| 2026-05-05 10:14 | 41.10808 | 0.88581 | 10569 ft | 131 kts | 327° |
| 2026-05-05 10:14 | 41.11636 | 0.88143 | 10757 ft | 129 kts | 326° |
| 2026-05-05 10:15 | 41.12470 | 0.87698 | 10965 ft | 130 kts | 326° |
| 2026-05-05 10:15 | 41.13321 | 0.87245 | 11170 ft | 133 kts | 327° |
| 2026-05-05 10:15 | 41.14183 | 0.86788 | 11370 ft | 135 kts | 327° |
| 2026-05-05 10:15 | 41.15051 | 0.86328 | 11573 ft | 134 kts | 326° |
| 2026-05-05 10:16 | 41.15926 | 0.85862 | 11776 ft | 137 kts | 327° |
| 2026-05-05 10:16 | 41.16812 | 0.85390 | 11973 ft | 138 kts | 328° |
| 2026-05-05 10:16 | 41.17704 | 0.84917 | 12181 ft | 137 kts | 327° |
| 2026-05-05 10:16 | 41.18589 | 0.84448 | 12386 ft | 136 kts | 326° |
| 2026-05-05 10:17 | 41.19466 | 0.83980 | 12599 ft | 136 kts | 326° |
| 2026-05-05 10:17 | 41.20343 | 0.83514 | 12812 ft | 136 kts | 326° |
| 2026-05-05 10:17 | 41.21226 | 0.83042 | 13025 ft | 138 kts | 326° |
| 2026-05-05 10:17 | 41.22119 | 0.82567 | 13233 ft | 139 kts | 326° |
| 2026-05-05 10:18 | 41.23019 | 0.82089 | 13439 ft | 139 kts | 326° |
| 2026-05-05 10:18 | 41.23914 | 0.81612 | 13658 ft | 139 kts | 326° |
| 2026-05-05 10:18 | 41.24811 | 0.81135 | 13860 ft | 139 kts | 326° |
| 2026-05-05 10:18 | 41.25715 | 0.80647 | 13956 ft | 146 kts | 326° |
| 2026-05-05 10:19 | 41.26703 | 0.80117 | 13968 ft | 159 kts | 327° |
| 2026-05-05 10:19 | 41.27745 | 0.79563 | 13967 ft | 167 kts | 328° |
| 2026-05-05 10:19 | 41.28853 | 0.78974 | 13964 ft | 174 kts | 328° |
| 2026-05-05 10:19 | 41.29985 | 0.78375 | 13967 ft | 176 kts | 328° |
| 2026-05-05 10:20 | 41.31128 | 0.77763 | 13961 ft | 178 kts | 328° |
| 2026-05-05 10:20 | 41.32282 | 0.77144 | 13967 ft | 180 kts | 328° |
| 2026-05-05 10:20 | 41.33448 | 0.76521 | 13966 ft | 181 kts | 328° |
| 2026-05-05 10:20 | 41.34612 | 0.75901 | 13968 ft | 178 kts | 329° |
| 2026-05-05 10:21 | 41.35735 | 0.75304 | 13968 ft | 171 kts | 329° |
| 2026-05-05 10:21 | 41.36828 | 0.74719 | 13968 ft | 168 kts | 328° |
| 2026-05-05 10:21 | 41.37905 | 0.74143 | 13969 ft | 166 kts | 328° |
| 2026-05-05 10:21 | 41.38966 | 0.73574 | 13966 ft | 164 kts | 328° |
| 2026-05-05 10:22 | 41.40017 | 0.73009 | 13968 ft | 163 kts | 328° |
| 2026-05-05 10:22 | 41.41063 | 0.72448 | 13966 ft | 161 kts | 328° |
| 2026-05-05 10:22 | 41.42099 | 0.71895 | 13963 ft | 160 kts | 328° |
| 2026-05-05 10:22 | 41.43131 | 0.71338 | 13964 ft | 159 kts | 328° |
| 2026-05-05 10:23 | 41.44144 | 0.70793 | 13965 ft | 159 kts | 328° |
| 2026-05-05 10:23 | 41.45165 | 0.70246 | 13965 ft | 158 kts | 328° |
| 2026-05-05 10:23 | 41.46184 | 0.69702 | 13966 ft | 157 kts | 328° |
| 2026-05-05 10:23 | 41.47207 | 0.69151 | 13968 ft | 158 kts | 328° |
| 2026-05-05 10:24 | 41.48228 | 0.68603 | 13963 ft | 158 kts | 328° |
| 2026-05-05 10:24 | 41.49245 | 0.68056 | 13964 ft | 157 kts | 328° |
| 2026-05-05 10:24 | 41.50260 | 0.67509 | 13969 ft | 158 kts | 328° |
| 2026-05-05 10:24 | 41.51269 | 0.66967 | 13969 ft | 158 kts | 328° |
| 2026-05-05 10:25 | 41.52293 | 0.66417 | 13970 ft | 159 kts | 328° |
| 2026-05-05 10:25 | 41.53316 | 0.65867 | 13969 ft | 159 kts | 328° |
| 2026-05-05 10:25 | 41.54341 | 0.65315 | 13970 ft | 159 kts | 328° |
| 2026-05-05 10:25 | 41.55348 | 0.64725 | 13967 ft | 155 kts | 319° |
| 2026-05-05 10:26 | 41.56221 | 0.63921 | 13973 ft | 151 kts | 314° |
| 2026-05-05 10:26 | 41.57076 | 0.63101 | 13975 ft | 151 kts | 314° |
| 2026-05-05 10:26 | 41.57931 | 0.62281 | 13973 ft | 152 kts | 314° |
| 2026-05-05 10:26 | 41.58790 | 0.61457 | 13974 ft | 152 kts | 314° |
| 2026-05-05 10:27 | 41.59650 | 0.60634 | 13974 ft | 152 kts | 314° |
| 2026-05-05 10:27 | 41.60509 | 0.59811 | 13972 ft | 152 kts | 314° |
| 2026-05-05 10:27 | 41.61373 | 0.58983 | 13976 ft | 153 kts | 314° |
| 2026-05-05 10:27 | 41.62234 | 0.58158 | 13976 ft | 155 kts | 314° |
| 2026-05-05 10:28 | 41.63115 | 0.57312 | 13978 ft | 157 kts | 314° |
| 2026-05-05 10:28 | 41.64008 | 0.56457 | 13975 ft | 158 kts | 314° |
| 2026-05-05 10:28 | 41.64904 | 0.55598 | 13976 ft | 159 kts | 314° |
| 2026-05-05 10:28 | 41.65806 | 0.54732 | 13976 ft | 159 kts | 314° |
| 2026-05-05 10:29 | 41.66710 | 0.53865 | 13976 ft | 160 kts | 315° |
| 2026-05-05 10:29 | 41.67613 | 0.52998 | 13977 ft | 160 kts | 315° |
| 2026-05-05 10:29 | 41.68509 | 0.52137 | 13977 ft | 160 kts | 315° |
| 2026-05-05 10:29 | 41.69417 | 0.51264 | 13975 ft | 161 kts | 315° |
| 2026-05-05 10:30 | 41.70328 | 0.50389 | 13975 ft | 161 kts | 314° |
| 2026-05-05 10:30 | 41.71240 | 0.49512 | 13974 ft | 161 kts | 315° |
| 2026-05-05 10:30 | 41.72152 | 0.48634 | 13975 ft | 161 kts | 315° |
| 2026-05-05 10:30 | 41.73061 | 0.47759 | 13974 ft | 162 kts | 315° |
| 2026-05-05 10:31 | 41.73976 | 0.46879 | 13976 ft | 162 kts | 315° |
| 2026-05-05 10:31 | 41.74892 | 0.45996 | 13974 ft | 162 kts | 315° |
| 2026-05-05 10:31 | 41.75811 | 0.45111 | 13976 ft | 162 kts | 315° |
| 2026-05-05 10:31 | 41.76729 | 0.44226 | 13976 ft | 163 kts | 315° |
| 2026-05-05 10:32 | 41.77651 | 0.43337 | 13980 ft | 164 kts | 315° |
| 2026-05-05 10:32 | 41.78581 | 0.42438 | 13972 ft | 165 kts | 316° |
| 2026-05-05 10:32 | 41.79511 | 0.41543 | 13971 ft | 164 kts | 315° |
| 2026-05-05 10:32 | 41.80437 | 0.40650 | 13970 ft | 164 kts | 315° |
| 2026-05-05 10:33 | 41.81363 | 0.39757 | 13970 ft | 163 kts | 315° |
| 2026-05-05 10:33 | 41.82273 | 0.38876 | 13971 ft | 163 kts | 315° |
| 2026-05-05 10:33 | 41.83196 | 0.37984 | 13979 ft | 164 kts | 316° |
| 2026-05-05 10:33 | 41.84123 | 0.37087 | 13970 ft | 164 kts | 316° |
| 2026-05-05 10:34 | 41.85052 | 0.36191 | 13969 ft | 164 kts | 316° |
| 2026-05-05 10:34 | 41.85974 | 0.35299 | 13970 ft | 163 kts | 316° |
| 2026-05-05 10:34 | 41.86899 | 0.34403 | 13969 ft | 164 kts | 316° |
| 2026-05-05 10:34 | 41.87822 | 0.33509 | 13968 ft | 164 kts | 316° |
| 2026-05-05 10:35 | 41.88747 | 0.32614 | 13969 ft | 163 kts | 316° |
| 2026-05-05 10:35 | 41.89670 | 0.31720 | 13969 ft | 163 kts | 316° |
| 2026-05-05 10:35 | 41.90592 | 0.30826 | 13969 ft | 164 kts | 316° |
| 2026-05-05 10:35 | 41.91504 | 0.29942 | 13967 ft | 164 kts | 316° |
| 2026-05-05 10:36 | 41.92425 | 0.29049 | 13967 ft | 163 kts | 316° |
| 2026-05-05 10:36 | 41.93345 | 0.28156 | 13967 ft | 163 kts | 316° |
| 2026-05-05 10:36 | 41.94264 | 0.27264 | 13968 ft | 163 kts | 316° |
| 2026-05-05 10:36 | 41.95183 | 0.26372 | 13967 ft | 163 kts | 316° |
| 2026-05-05 10:37 | 41.96103 | 0.25479 | 13968 ft | 163 kts | 316° |
| 2026-05-05 10:37 | 41.97020 | 0.24588 | 13968 ft | 163 kts | 316° |
| 2026-05-05 10:37 | 41.97935 | 0.23699 | 13966 ft | 162 kts | 316° |
| 2026-05-05 10:37 | 41.98850 | 0.22810 | 13976 ft | 162 kts | 316° |
| 2026-05-05 10:38 | 41.99750 | 0.21934 | 13968 ft | 161 kts | 316° |
| 2026-05-05 10:38 | 42.00659 | 0.21050 | 13969 ft | 161 kts | 316° |
| 2026-05-05 10:38 | 42.01571 | 0.20162 | 13969 ft | 161 kts | 316° |
| 2026-05-05 10:38 | 42.02481 | 0.19276 | 13970 ft | 162 kts | 316° |
| 2026-05-05 10:39 | 42.03391 | 0.18389 | 13969 ft | 162 kts | 316° |
| 2026-05-05 10:39 | 42.04301 | 0.17503 | 13968 ft | 161 kts | 316° |
| 2026-05-05 10:39 | 42.05210 | 0.16617 | 13968 ft | 161 kts | 316° |
| 2026-05-05 10:39 | 42.06052 | 0.15654 | 13965 ft | 156 kts | 303° |
| 2026-05-05 10:40 | 42.06610 | 0.14441 | 13971 ft | 151 kts | 290° |
| 2026-05-05 10:40 | 42.07082 | 0.13182 | 13971 ft | 151 kts | 289° |
| 2026-05-05 10:40 | 42.07551 | 0.11919 | 13971 ft | 151 kts | 289° |
| 2026-05-05 10:40 | 42.08016 | 0.10670 | 13970 ft | 151 kts | 289° |
| 2026-05-05 10:41 | 42.08487 | 0.09406 | 13969 ft | 151 kts | 289° |
| 2026-05-05 10:41 | 42.08959 | 0.08138 | 13969 ft | 151 kts | 289° |
| 2026-05-05 10:41 | 42.09431 | 0.06871 | 13968 ft | 152 kts | 289° |
| 2026-05-05 10:41 | 42.09906 | 0.05596 | 13968 ft | 152 kts | 289° |
| 2026-05-05 10:42 | 42.10853 | 0.03050 | 13970 ft | 152 kts | 289° |
| 2026-05-05 10:42 | 42.11328 | 0.01773 | 13970 ft | 153 kts | 290° |
| 2026-05-05 10:42 | 42.11806 | 0.00489 | 13969 ft | 153 kts | 290° |
| 2026-05-05 10:43 | 42.12287 | -0.00807 | 13969 ft | 155 kts | 290° |
| 2026-05-05 10:43 | 42.12772 | -0.02108 | 13972 ft | 155 kts | 290° |
| 2026-05-05 10:43 | 42.13253 | -0.03406 | 13972 ft | 155 kts | 290° |
| 2026-05-05 10:43 | 42.13729 | -0.04690 | 13970 ft | 155 kts | 290° |
| 2026-05-05 10:44 | 42.14210 | -0.05988 | 13968 ft | 155 kts | 290° |
| 2026-05-05 10:44 | 42.14690 | -0.07280 | 13972 ft | 154 kts | 290° |
| 2026-05-05 10:44 | 42.15167 | -0.08570 | 13970 ft | 154 kts | 290° |
| 2026-05-05 10:44 | 42.15646 | -0.09860 | 13967 ft | 154 kts | 290° |
| 2026-05-05 10:45 | 42.16122 | -0.11148 | 13968 ft | 153 kts | 290° |
| 2026-05-05 10:45 | 42.16598 | -0.12432 | 13970 ft | 153 kts | 290° |
| 2026-05-05 10:45 | 42.17073 | -0.13721 | 13958 ft | 153 kts | 289° |
| 2026-05-05 10:45 | 42.17545 | -0.14995 | 13971 ft | 152 kts | 290° |
| 2026-05-05 10:46 | 42.18018 | -0.16272 | 13971 ft | 152 kts | 290° |
| 2026-05-05 10:46 | 42.18490 | -0.17549 | 13972 ft | 153 kts | 290° |
| 2026-05-05 10:46 | 42.18959 | -0.18822 | 13969 ft | 154 kts | 289° |
| 2026-05-05 10:46 | 42.19438 | -0.20119 | 13969 ft | 154 kts | 290° |
| 2026-05-05 10:47 | 42.19915 | -0.21413 | 13977 ft | 154 kts | 290° |
| 2026-05-05 10:47 | 42.20393 | -0.22710 | 13969 ft | 155 kts | 290° |
| 2026-05-05 10:47 | 42.20873 | -0.24013 | 13967 ft | 155 kts | 290° |
| 2026-05-05 10:47 | 42.21353 | -0.25315 | 13970 ft | 155 kts | 290° |
| 2026-05-05 10:48 | 42.21827 | -0.26602 | 13968 ft | 155 kts | 290° |
| 2026-05-05 10:48 | 42.22308 | -0.27910 | 13970 ft | 155 kts | 290° |
| 2026-05-05 10:48 | 42.22789 | -0.29216 | 13970 ft | 155 kts | 290° |
| 2026-05-05 10:48 | 42.23268 | -0.30520 | 13967 ft | 154 kts | 289° |
| 2026-05-05 10:49 | 42.23746 | -0.31821 | 13974 ft | 155 kts | 290° |
| 2026-05-05 10:49 | 42.24225 | -0.33126 | 13975 ft | 155 kts | 290° |
| 2026-05-05 10:49 | 42.24701 | -0.34420 | 13975 ft | 156 kts | 290° |
| 2026-05-05 10:49 | 42.25182 | -0.35733 | 13978 ft | 157 kts | 290° |
| 2026-05-05 10:50 | 42.25667 | -0.37055 | 13978 ft | 157 kts | 290° |
| 2026-05-05 10:50 | 42.26151 | -0.38375 | 13970 ft | 156 kts | 290° |
| 2026-05-05 10:50 | 42.26632 | -0.39682 | 13971 ft | 155 kts | 290° |
| 2026-05-05 10:50 | 42.27107 | -0.40976 | 13979 ft | 154 kts | 290° |
| 2026-05-05 10:51 | 42.27581 | -0.42278 | 13971 ft | 155 kts | 290° |
| 2026-05-05 10:51 | 42.28058 | -0.43584 | 13975 ft | 155 kts | 290° |
| 2026-05-05 10:51 | 42.28538 | -0.44893 | 13972 ft | 155 kts | 290° |
| 2026-05-05 10:51 | 42.29020 | -0.46210 | 13974 ft | 157 kts | 290° |
| 2026-05-05 10:52 | 42.29497 | -0.47515 | 13975 ft | 157 kts | 290° |
| 2026-05-05 10:52 | 42.29978 | -0.48835 | 13974 ft | 156 kts | 290° |
| 2026-05-05 10:52 | 42.30466 | -0.50168 | 13974 ft | 156 kts | 290° |
| 2026-05-05 10:52 | 42.30939 | -0.51468 | 13977 ft | 156 kts | 290° |
| 2026-05-05 10:53 | 42.31421 | -0.52789 | 13977 ft | 157 kts | 290° |
| 2026-05-05 10:53 | 42.31904 | -0.54113 | 13985 ft | 157 kts | 290° |
| 2026-05-05 10:53 | 42.32390 | -0.55444 | 13978 ft | 158 kts | 290° |
| 2026-05-05 10:53 | 42.32876 | -0.56780 | 13974 ft | 158 kts | 290° |
| 2026-05-05 10:54 | 42.33363 | -0.58115 | 13977 ft | 159 kts | 290° |
| 2026-05-05 10:54 | 42.33852 | -0.59461 | 13971 ft | 159 kts | 290° |
| 2026-05-05 10:54 | 42.34341 | -0.60802 | 13969 ft | 159 kts | 290° |
| 2026-05-05 10:54 | 42.34823 | -0.62128 | 13976 ft | 155 kts | 290° |
| 2026-05-05 10:55 | 42.35298 | -0.63431 | 13973 ft | 154 kts | 290° |
| 2026-05-05 10:55 | 42.35768 | -0.64725 | 13976 ft | 154 kts | 290° |
| 2026-05-05 10:55 | 42.36080 | -0.65586 | 13976 ft | 154 kts | 290° |
| 2026-05-05 10:55 | 42.36554 | -0.66894 | 13979 ft | 156 kts | 290° |
| 2026-05-05 10:56 | 42.37032 | -0.68211 | 13981 ft | 157 kts | 290° |
| 2026-05-05 10:56 | 42.37516 | -0.69543 | 13984 ft | 159 kts | 290° |
| 2026-05-05 10:56 | 42.38003 | -0.70878 | 13976 ft | 158 kts | 290° |
| 2026-05-05 10:56 | 42.38483 | -0.72208 | 13974 ft | 157 kts | 290° |
| 2026-05-05 10:57 | 42.38961 | -0.73531 | 13981 ft | 156 kts | 290° |
| 2026-05-05 10:57 | 42.39439 | -0.74849 | 13978 ft | 156 kts | 290° |
| 2026-05-05 10:57 | 42.39915 | -0.76167 | 13979 ft | 156 kts | 290° |
| 2026-05-05 10:57 | 42.40262 | -0.77124 | 13989 ft | 155 kts | 289° |
| 2026-05-05 10:58 | 42.40973 | -0.78284 | 13994 ft | 162 kts | 312° |
| 2026-05-05 10:58 | 42.41846 | -0.79273 | 13984 ft | 164 kts | 314° |
| 2026-05-05 10:58 | 42.42730 | -0.80254 | 13983 ft | 164 kts | 314° |
| 2026-05-05 10:58 | 42.43604 | -0.81239 | 13984 ft | 164 kts | 313° |
| 2026-05-05 10:59 | 42.44416 | -0.82271 | 13974 ft | 159 kts | 296° |
| 2026-05-05 10:59 | 42.44802 | -0.83619 | 13985 ft | 152 kts | 279° |
| 2026-05-05 10:59 | 42.45069 | -0.85004 | 13989 ft | 153 kts | 278° |
| 2026-05-05 10:59 | 42.45355 | -0.86394 | 13985 ft | 153 kts | 281° |
| 2026-05-05 11:00 | 42.45683 | -0.87763 | 13985 ft | 153 kts | 282° |
| 2026-05-05 11:00 | 42.46030 | -0.89127 | 13986 ft | 152 kts | 283° |
| 2026-05-05 11:00 | 42.46378 | -0.90484 | 13985 ft | 152 kts | 282° |
| 2026-05-05 11:00 | 42.46725 | -0.91836 | 13989 ft | 152 kts | 282° |
| 2026-05-05 11:01 | 42.47072 | -0.93190 | 13987 ft | 152 kts | 283° |
| 2026-05-05 11:01 | 42.47416 | -0.94534 | 13989 ft | 150 kts | 283° |
| 2026-05-05 11:01 | 42.47758 | -0.95869 | 13983 ft | 149 kts | 283° |
| 2026-05-05 11:01 | 42.48097 | -0.97191 | 13988 ft | 148 kts | 283° |
| 2026-05-05 11:02 | 42.48436 | -0.98508 | 13998 ft | 148 kts | 283° |
| 2026-05-05 11:02 | 42.48774 | -0.99834 | 13987 ft | 150 kts | 282° |
| 2026-05-05 11:02 | 42.49113 | -1.01172 | 13992 ft | 151 kts | 283° |
| 2026-05-05 11:02 | 42.49454 | -1.02510 | 13993 ft | 153 kts | 283° |
| 2026-05-05 11:03 | 42.49873 | -1.03846 | 13994 ft | 155 kts | 289° |
| 2026-05-05 11:03 | 42.50347 | -1.05168 | 13996 ft | 157 kts | 289° |
| 2026-05-05 11:03 | 42.50827 | -1.06503 | 13996 ft | 158 kts | 289° |
| 2026-05-05 11:03 | 42.51311 | -1.07852 | 13995 ft | 159 kts | 289° |
| 2026-05-05 11:04 | 42.51794 | -1.09199 | 13994 ft | 159 kts | 289° |
| 2026-05-05 11:04 | 42.52278 | -1.10551 | 13992 ft | 159 kts | 289° |
| 2026-05-05 11:04 | 42.52759 | -1.11899 | 13997 ft | 159 kts | 289° |
| 2026-05-05 11:04 | 42.53234 | -1.13229 | 13996 ft | 158 kts | 289° |
| 2026-05-05 11:05 | 42.53714 | -1.14573 | 13997 ft | 158 kts | 289° |
| 2026-05-05 11:05 | 42.54191 | -1.15910 | 13995 ft | 157 kts | 289° |
| 2026-05-05 11:05 | 42.54668 | -1.17246 | 13994 ft | 156 kts | 289° |
| 2026-05-05 11:05 | 42.55141 | -1.18572 | 13993 ft | 156 kts | 289° |
| 2026-05-05 11:06 | 42.55611 | -1.19890 | 13997 ft | 155 kts | 289° |
| 2026-05-05 11:06 | 42.56081 | -1.21210 | 13996 ft | 155 kts | 289° |
| 2026-05-05 11:06 | 42.56549 | -1.22526 | 13996 ft | 155 kts | 289° |
| 2026-05-05 11:06 | 42.57017 | -1.23840 | 13998 ft | 155 kts | 289° |
| 2026-05-05 11:07 | 42.57485 | -1.25157 | 14000 ft | 155 kts | 289° |
| 2026-05-05 11:07 | 42.57953 | -1.26475 | 13998 ft | 155 kts | 289° |
| 2026-05-05 11:07 | 42.58421 | -1.27791 | 13998 ft | 154 kts | 289° |
| 2026-05-05 11:07 | 42.58888 | -1.29105 | 13999 ft | 154 kts | 289° |
| 2026-05-05 11:08 | 42.59353 | -1.30415 | 14000 ft | 154 kts | 289° |
| 2026-05-05 11:08 | 42.59813 | -1.31709 | 13997 ft | 154 kts | 289° |
| 2026-05-05 11:08 | 42.60276 | -1.33016 | 13999 ft | 153 kts | 289° |
| 2026-05-05 11:08 | 42.60738 | -1.34324 | 14006 ft | 154 kts | 289° |
| 2026-05-05 11:09 | 42.61203 | -1.35636 | 14005 ft | 155 kts | 289° |
| 2026-05-05 11:09 | 42.61672 | -1.36961 | 14003 ft | 156 kts | 289° |
| 2026-05-05 11:09 | 42.62144 | -1.38291 | 14005 ft | 157 kts | 289° |
| 2026-05-05 11:09 | 42.62615 | -1.39621 | 14001 ft | 156 kts | 289° |
| 2026-05-05 11:10 | 42.63085 | -1.40947 | 13998 ft | 155 kts | 289° |
| 2026-05-05 11:10 | 42.63554 | -1.42272 | 14000 ft | 156 kts | 289° |
| 2026-05-05 11:10 | 42.64023 | -1.43601 | 13999 ft | 156 kts | 289° |
| 2026-05-05 11:10 | 42.64494 | -1.44929 | 13997 ft | 156 kts | 289° |
| 2026-05-05 11:11 | 42.64962 | -1.46253 | 14000 ft | 156 kts | 289° |
| 2026-05-05 11:11 | 42.65424 | -1.47558 | 13998 ft | 154 kts | 289° |
| 2026-05-05 11:11 | 42.65885 | -1.48864 | 13999 ft | 153 kts | 289° |
| 2026-05-05 11:11 | 42.66345 | -1.50172 | 13997 ft | 153 kts | 289° |
| 2026-05-05 11:12 | 42.66805 | -1.51472 | 13995 ft | 152 kts | 289° |
| 2026-05-05 11:12 | 42.67264 | -1.52772 | 14003 ft | 153 kts | 289° |
| 2026-05-05 11:12 | 42.67720 | -1.54067 | 14001 ft | 150 kts | 291° |
| 2026-05-05 11:12 | 42.68168 | -1.55342 | 13997 ft | 150 kts | 290° |
| 2026-05-05 11:13 | 42.68616 | -1.56619 | 14002 ft | 150 kts | 290° |
| 2026-05-05 11:13 | 42.69066 | -1.57901 | 14004 ft | 151 kts | 290° |
| 2026-05-05 11:13 | 42.69520 | -1.59195 | 13998 ft | 152 kts | 290° |
| 2026-05-05 11:13 | 42.69972 | -1.60481 | 14003 ft | 150 kts | 291° |
| 2026-05-05 11:14 | 42.70424 | -1.61765 | 14001 ft | 150 kts | 291° |
| 2026-05-05 11:14 | 42.70870 | -1.63037 | 14001 ft | 151 kts | 290° |
| 2026-05-05 11:14 | 42.71322 | -1.64326 | 14000 ft | 151 kts | 290° |
| 2026-05-05 11:14 | 42.71774 | -1.65619 | 14000 ft | 151 kts | 291° |
| 2026-05-05 11:15 | 42.72225 | -1.66908 | 13997 ft | 150 kts | 290° |
| 2026-05-05 11:15 | 42.72674 | -1.68193 | 13995 ft | 150 kts | 290° |
| 2026-05-05 11:15 | 42.73124 | -1.69471 | 13991 ft | 150 kts | 292° |
| 2026-05-05 11:15 | 42.73764 | -1.70600 | 13990 ft | 154 kts | 313° |
| 2026-05-05 11:16 | 42.74599 | -1.71518 | 14001 ft | 155 kts | 316° |
| 2026-05-05 11:16 | 42.75436 | -1.72413 | 14002 ft | 155 kts | 316° |
| 2026-05-05 11:16 | 42.76289 | -1.73321 | 14003 ft | 156 kts | 316° |
| 2026-05-05 11:16 | 42.77147 | -1.74237 | 14002 ft | 157 kts | 316° |
| 2026-05-05 11:17 | 42.78006 | -1.75157 | 14003 ft | 157 kts | 316° |
| 2026-05-05 11:17 | 42.78867 | -1.76078 | 14005 ft | 157 kts | 316° |
| 2026-05-05 11:17 | 42.79728 | -1.77002 | 14003 ft | 158 kts | 316° |
| 2026-05-05 11:17 | 42.80591 | -1.77927 | 14003 ft | 158 kts | 316° |
| 2026-05-05 11:18 | 42.81452 | -1.78851 | 14003 ft | 158 kts | 316° |
| 2026-05-05 11:18 | 42.82314 | -1.79777 | 14003 ft | 158 kts | 316° |
| 2026-05-05 11:18 | 42.83177 | -1.80703 | 14004 ft | 158 kts | 316° |
| 2026-05-05 11:18 | 42.84030 | -1.81619 | 14006 ft | 158 kts | 316° |
| 2026-05-05 11:19 | 42.84899 | -1.82552 | 14008 ft | 159 kts | 316° |
| 2026-05-05 11:19 | 42.85771 | -1.83490 | 14007 ft | 159 kts | 316° |
| 2026-05-05 11:19 | 42.86642 | -1.84426 | 14004 ft | 160 kts | 316° |
| 2026-05-05 11:19 | 42.87521 | -1.85372 | 14006 ft | 161 kts | 316° |
| 2026-05-05 11:20 | 42.88405 | -1.86322 | 14005 ft | 162 kts | 316° |
| 2026-05-05 11:20 | 42.89284 | -1.87267 | 14010 ft | 160 kts | 316° |
| 2026-05-05 11:20 | 42.90151 | -1.88202 | 14010 ft | 158 kts | 316° |
| 2026-05-05 11:20 | 42.91016 | -1.89132 | 14010 ft | 158 kts | 316° |
| 2026-05-05 11:21 | 42.91881 | -1.90064 | 14011 ft | 158 kts | 316° |
| 2026-05-05 11:21 | 42.92747 | -1.90996 | 14015 ft | 158 kts | 315° |
| 2026-05-05 11:21 | 42.93613 | -1.91928 | 14017 ft | 159 kts | 316° |
| 2026-05-05 11:21 | 42.94468 | -1.92849 | 14016 ft | 159 kts | 316° |
| 2026-05-05 11:22 | 42.95338 | -1.93785 | 14011 ft | 159 kts | 316° |
| 2026-05-05 11:22 | 42.96200 | -1.94715 | 14011 ft | 158 kts | 316° |
| 2026-05-05 11:22 | 42.97055 | -1.95637 | 14012 ft | 155 kts | 316° |
| 2026-05-05 11:22 | 42.97901 | -1.96551 | 14012 ft | 155 kts | 315° |
| 2026-05-05 11:23 | 42.98752 | -1.97469 | 14010 ft | 155 kts | 315° |
| 2026-05-05 11:23 | 42.99596 | -1.98379 | 14002 ft | 153 kts | 315° |
| 2026-05-05 11:23 | 43.00425 | -1.99277 | 14014 ft | 151 kts | 316° |
| 2026-05-05 11:23 | 43.01255 | -2.00175 | 14012 ft | 152 kts | 317° |
| 2026-05-05 11:24 | 43.02087 | -2.01071 | 14013 ft | 153 kts | 317° |
| 2026-05-05 11:24 | 43.02919 | -2.01970 | 14012 ft | 153 kts | 317° |
| 2026-05-05 11:24 | 43.03758 | -2.02879 | 14014 ft | 154 kts | 317° |
| 2026-05-05 11:24 | 43.04595 | -2.03785 | 13914 ft | 161 kts | 317° |
| 2026-05-05 11:25 | 43.05517 | -2.04785 | 13593 ft | 176 kts | 317° |
| 2026-05-05 11:25 | 43.06500 | -2.05849 | 13289 ft | 183 kts | 318° |
| 2026-05-05 11:25 | 43.07498 | -2.06923 | 13037 ft | 181 kts | 319° |
| 2026-05-05 11:25 | 43.08595 | -2.07738 | 12821 ft | 180 kts | 338° |
| 2026-05-05 11:26 | 43.09837 | -2.07982 | 12591 ft | 183 kts | 359° |
| 2026-05-05 11:26 | 43.11085 | -2.07595 | 12345 ft | 185 kts | 21° |
| 2026-05-05 11:26 | 43.12154 | -2.06622 | 12115 ft | 185 kts | 39° |
| 2026-05-05 11:26 | 43.13115 | -2.05443 | 11868 ft | 185 kts | 40° |
| 2026-05-05 11:27 | 43.14070 | -2.04252 | 11618 ft | 185 kts | 40° |
| 2026-05-05 11:27 | 43.15018 | -2.03071 | 11383 ft | 184 kts | 40° |
| 2026-05-05 11:27 | 43.15965 | -2.01896 | 11142 ft | 183 kts | 40° |
| 2026-05-05 11:27 | 43.16908 | -2.00729 | 10900 ft | 182 kts | 40° |
| 2026-05-05 11:28 | 43.17834 | -1.99577 | 10667 ft | 181 kts | 40° |
| 2026-05-05 11:28 | 43.18767 | -1.98418 | 10427 ft | 182 kts | 40° |
| 2026-05-05 11:28 | 43.19704 | -1.97254 | 10182 ft | 182 kts | 40° |
| 2026-05-05 11:28 | 43.20645 | -1.96088 | 9939 ft | 182 kts | 40° |
| 2026-05-05 11:29 | 43.21580 | -1.94927 | 9689 ft | 180 kts | 40° |
| 2026-05-05 11:29 | 43.22496 | -1.93785 | 9475 ft | 176 kts | 39° |
| 2026-05-05 11:29 | 43.23403 | -1.92670 | 9247 ft | 176 kts | 38° |
| 2026-05-05 11:29 | 43.24307 | -1.91538 | 9007 ft | 175 kts | 39° |
| 2026-05-05 11:30 | 43.25200 | -1.90419 | 8790 ft | 174 kts | 39° |
| 2026-05-05 11:30 | 43.26082 | -1.89316 | 8565 ft | 173 kts | 39° |
| 2026-05-05 11:30 | 43.26980 | -1.88201 | 8326 ft | 175 kts | 38° |
| 2026-05-05 11:30 | 43.27880 | -1.87088 | 8099 ft | 173 kts | 39° |
| 2026-05-05 11:31 | 43.28772 | -1.85977 | 7848 ft | 173 kts | 39° |
| 2026-05-05 11:31 | 43.29690 | -1.84915 | 7616 ft | 171 kts | 28° |
| 2026-05-05 11:31 | 43.30774 | -1.84359 | 7391 ft | 165 kts | 4° |
| 2026-05-05 11:31 | 43.31890 | -1.84433 | 7179 ft | 157 kts | 342° |
| 2026-05-05 11:32 | 43.32849 | -1.85044 | 6983 ft | 153 kts | 321° |
| 2026-05-05 11:32 | 43.33671 | -1.85965 | 6772 ft | 152 kts | 317° |
| 2026-05-05 11:32 | 43.34478 | -1.86896 | 6576 ft | 151 kts | 317° |
| 2026-05-05 11:32 | 43.35290 | -1.87833 | 6355 ft | 152 kts | 317° |
| 2026-05-05 11:33 | 43.36095 | -1.88760 | 6156 ft | 149 kts | 317° |
| 2026-05-05 11:33 | 43.36882 | -1.89667 | 5961 ft | 147 kts | 317° |
| 2026-05-05 11:33 | 43.37658 | -1.90562 | 5769 ft | 145 kts | 317° |
| 2026-05-05 11:33 | 43.38425 | -1.91448 | 5587 ft | 143 kts | 318° |
| 2026-05-05 11:34 | 43.39186 | -1.92325 | 5396 ft | 143 kts | 318° |
| 2026-05-05 11:34 | 43.39945 | -1.93201 | 5208 ft | 142 kts | 318° |
| 2026-05-05 11:34 | 43.40700 | -1.94073 | 5029 ft | 141 kts | 319° |
| 2026-05-05 11:34 | 43.41455 | -1.94944 | 4848 ft | 142 kts | 317° |
| 2026-05-05 11:35 | 43.42218 | -1.95824 | 4630 ft | 143 kts | 316° |
| 2026-05-05 11:35 | 43.42992 | -1.96673 | 4437 ft | 143 kts | 324° |
| 2026-05-05 11:35 | 43.43919 | -1.97172 | 4249 ft | 146 kts | 344° |
| 2026-05-05 11:35 | 43.44938 | -1.97156 | 4084 ft | 150 kts | 7° |
| 2026-05-05 11:36 | 43.45874 | -1.96612 | 4087 ft | 145 kts | 28° |
| 2026-05-05 11:36 | 43.46585 | -1.95640 | 4090 ft | 146 kts | 51° |
| 2026-05-05 11:36 | 43.47097 | -1.94416 | 4038 ft | 149 kts | 57° |
| 2026-05-05 11:36 | 43.47598 | -1.93149 | 3949 ft | 152 kts | 57° |
| 2026-05-05 11:37 | 43.48114 | -1.91874 | 3863 ft | 152 kts | 55° |
| 2026-05-05 11:37 | 43.48635 | -1.90590 | 3752 ft | 156 kts | 54° |
| 2026-05-05 11:37 | 43.49179 | -1.89271 | 3638 ft | 159 kts | 60° |
| 2026-05-05 11:37 | 43.49683 | -1.87940 | 3541 ft | 154 kts | 56° |
| 2026-05-05 11:38 | 43.50198 | -1.86659 | 3451 ft | 154 kts | 59° |
| 2026-05-05 11:38 | 43.50700 | -1.85387 | 3346 ft | 152 kts | 57° |
| 2026-05-05 11:38 | 43.51210 | -1.84124 | 3249 ft | 152 kts | 57° |
| 2026-05-05 11:38 | 43.51723 | -1.82838 | 3145 ft | 153 kts | 58° |
| 2026-05-05 11:39 | 43.52233 | -1.81552 | 3039 ft | 153 kts | 57° |
| 2026-05-05 11:39 | 43.52740 | -1.80278 | 2942 ft | 150 kts | 56° |
| 2026-05-05 11:39 | 43.53238 | -1.79029 | 2845 ft | 147 kts | 57° |
| 2026-05-05 11:39 | 43.53732 | -1.77793 | 2746 ft | 147 kts | 57° |
| 2026-05-05 11:40 | 43.54218 | -1.76570 | 2650 ft | 148 kts | 57° |
| 2026-05-05 11:40 | 43.54639 | -1.75277 | 2545 ft | 149 kts | 75° |
| 2026-05-05 11:40 | 43.54619 | -1.73872 | 2489 ft | 144 kts | 107° |
| 2026-05-05 11:40 | 43.54163 | -1.72705 | 2494 ft | 135 kts | 132° |
| 2026-05-05 11:41 | 43.53580 | -1.71712 | 2494 ft | 132 kts | 133° |
| 2026-05-05 11:41 | 43.53003 | -1.70733 | 2498 ft | 132 kts | 133° |
| 2026-05-05 11:41 | 43.52423 | -1.69749 | 2503 ft | 136 kts | 133° |
| 2026-05-05 11:41 | 43.51818 | -1.68724 | 2504 ft | 139 kts | 133° |
| 2026-05-05 11:42 | 43.51201 | -1.67677 | 2495 ft | 141 kts | 133° |
| 2026-05-05 11:42 | 43.50583 | -1.66622 | 2493 ft | 142 kts | 132° |
| 2026-05-05 11:42 | 43.49902 | -1.65648 | 2492 ft | 140 kts | 150° |
| 2026-05-05 11:42 | 43.49009 | -1.65214 | 2499 ft | 135 kts | 181° |
| 2026-05-05 11:43 | 43.48113 | -1.65420 | 2500 ft | 130 kts | 210° |
| 2026-05-05 11:43 | 43.47613 | -1.65854 | 2500 ft | 128 kts | 222° |
| 2026-05-05 11:43 | 43.46902 | -1.66636 | 2453 ft | 135 kts | 224° |
| 2026-05-05 11:43 | 43.46142 | -1.67471 | 2373 ft | 144 kts | 225° |
| 2026-05-05 11:44 | 43.45350 | -1.68353 | 2265 ft | 147 kts | 224° |
| 2026-05-05 11:44 | 43.44310 | -1.69506 | 2148 ft | 141 kts | 224° |
| 2026-05-05 11:44 | 43.43797 | -1.70073 | 2092 ft | 137 kts | 225° |
| 2026-05-05 11:44 | 43.43083 | -1.70863 | 1985 ft | 131 kts | 223° |
| 2026-05-05 11:45 | 43.42371 | -1.71648 | 1780 ft | 131 kts | 224° |
| 2026-05-05 11:45 | 43.41688 | -1.72402 | 1537 ft | 121 kts | 221° |
| 2026-05-05 11:45 | 43.41070 | -1.73084 | 1377 ft | 109 kts | 220° |
| 2026-05-05 11:45 | 43.40492 | -1.73721 | 1223 ft | 103 kts | 221° |
| 2026-05-05 11:46 | 43.39945 | -1.74327 | 1074 ft | 95 kts | 221° |
| 2026-05-05 11:46 | 43.39457 | -1.74864 | 951 ft | 87 kts | 224° |
| 2026-05-05 11:46 | 43.38989 | -1.75379 | 827 ft | 86 kts | 223° |
| 2026-05-05 11:46 | 43.38525 | -1.75890 | 711 ft | 87 kts | 222° |
| 2026-05-05 11:47 | 43.38042 | -1.76418 | 578 ft | 91 kts | 220° |
| 2026-05-05 11:47 | 43.37547 | -1.76966 | 428 ft | 91 kts | 221° |
| 2026-05-05 11:47 | 43.37048 | -1.77525 | 307 ft | 94 kts | 218° |
| 2026-05-05 11:47 | 43.36541 | -1.78083 | 169 ft | 92 kts | 221° |
| 2026-05-05 11:48 | 43.35693 | -1.79015 | 12 ft | 36 kts | 219° |
| 2026-05-05 11:48 | 43.35589 | -1.79128 | 12 ft | 17 kts | 218° |
| 2026-05-05 11:48 | 43.35512 | -1.79220 | 13 ft | 6 kts | 255° |
| 2026-05-05 11:49 | 43.35536 | -1.79273 | 12 ft | 5 kts | 313° |
| 2026-05-05 11:49 | 43.35558 | -1.79331 | 11 ft | 10 kts | 211° |
| 2026-05-05 11:49 | 43.35514 | -1.79387 | 11 ft | 8 kts | 265° |
| 2026-05-05 11:49 | 43.35501 | -1.79401 | 11 ft | 1 kts | 125° |